Time;durP1;ratioP1;P1;durP2;ratioP2;P2;SDS_P1;SDS_P2;PMS_P1;PMS_P2;Temp;Humidity;BMP_temperature;BMP_pressure;BME280_temperature;BME280_humidity;BME280_pressure;Samples;Min_cycle;Max_cycle;Signal;HPM_P1;HPM_P2
2022/03/29 00:00:41;;;;;;;9.93;6.67;;;;;;;;;;5050292;28;20208;-55
2022/03/29 00:03:08;;;;;;;11.03;7.37;;;;;;;;;;5065814;28;20203;-55
2022/03/29 00:05:35;;;;;;;10.30;6.47;;;;;;;;;;5048409;28;20262;-57
2022/03/29 00:08:01;;;;;;;10.37;7.00;;;;;;;;;;5067249;28;20185;-55
2022/03/29 00:10:27;;;;;;;8.97;6.73;;;;;;;;;;5050568;28;20196;-55
2022/03/29 00:12:54;;;;;;;8.00;6.63;;;;;;;;;;5069072;28;20180;-56
2022/03/29 00:15:24;;;;;;;11.13;6.37;;;;;;;;;;5080183;28;20215;-56
2022/03/29 00:17:51;;;;;;;10.77;6.80;;;;;;;;;;5068354;28;21056;-56
2022/03/29 00:20:18;;;;;;;9.13;7.67;;;;;;;;;;5083783;28;20195;-56
2022/03/29 00:22:46;;;;;;;9.70;7.00;;;;;;;;;;5070587;28;20179;-56
2022/03/29 00:25:13;;;;;;;11.27;7.87;;;;;;;;;;5082445;28;20270;-56
2022/03/29 00:27:40;;;;;;;8.27;6.57;;;;;;;;;;5069857;28;20210;-56
2022/03/29 00:30:07;;;;;;;9.30;7.63;;;;;;;;;;5085453;28;20587;-55
2022/03/29 00:32:34;;;;;;;10.97;7.77;;;;;;;;;;5069880;28;20667;-57
2022/03/29 00:35:00;;;;;;;11.30;7.60;;;;;;;;;;5082789;28;20192;-55
2022/03/29 00:37:26;;;;;;;10.37;7.63;;;;;;;;;;5060724;28;20184;-56
2022/03/29 00:39:53;;;;;;;12.40;8.13;;;;;;;;;;5068894;28;20218;-56
2022/03/29 00:42:19;;;;;;;10.90;7.60;;;;;;;;;;5069683;28;20186;-55
2022/03/29 00:44:45;;;;;;;10.00;7.63;;;;;;;;;;5086697;28;20186;-57
2022/03/29 00:47:12;;;;;;;11.03;7.33;;;;;;;;;;5069917;28;20168;-53
2022/03/29 00:49:38;;;;;;;11.47;8.10;;;;;;;;;;5067229;28;20601;-56
2022/03/29 00:52:05;;;;;;;8.27;7.27;;;;;;;;;;5070047;28;20233;-56
2022/03/29 00:54:33;;;;;;;11.13;7.23;;;;;;;;;;5072398;28;20186;-55
2022/03/29 00:57:00;;;;;;;16.80;7.73;;;;;;;;;;5070547;28;20207;-56
2022/03/29 00:59:27;;;;;;;10.97;7.70;;;;;;;;;;5067707;28;20194;-54
2022/03/29 01:01:54;;;;;;;9.13;7.10;;;;;;;;;;5068828;28;20179;-54
2022/03/29 01:04:21;;;;;;;10.90;7.47;;;;;;;;;;5083483;28;20195;-56
2022/03/29 01:06:47;;;;;;;9.57;7.87;;;;;;;;;;5067153;28;20865;-56
2022/03/29 01:09:13;;;;;;;12.20;7.70;;;;;;;;;;5085273;28;20180;-55
2022/03/29 01:11:39;;;;;;;9.10;7.30;;;;;;;;;;5088320;28;20188;-56
2022/03/29 01:14:06;;;;;;;10.93;7.70;;;;;;;;;;5084496;28;20229;-55
2022/03/29 01:19:20;;;;;;;8.77;7.77;;;;;;;;;;5083573;28;20233;-54
2022/03/29 01:21:54;;;;;;;9.80;7.57;;;;;;;;;;5050136;28;20765;-54
2022/03/29 01:24:20;;;;;;;8.80;7.30;;;;;;;;;;5059917;28;20241;-57
2022/03/29 01:26:48;;;;;;;12.03;8.20;;;;;;;;;;5068796;28;20658;-55
2022/03/29 01:29:14;;;;;;;12.03;7.83;;;;;;;;;;5069112;28;20179;-56
2022/03/29 01:31:40;;;;;;;10.53;7.90;;;;;;;;;;5086825;28;20635;-56
2022/03/29 01:34:07;;;;;;;11.13;8.30;;;;;;;;;;5084002;28;20191;-55
2022/03/29 01:36:34;;;;;;;8.87;7.93;;;;;;;;;;5069329;28;20198;-55
2022/03/29 01:39:00;;;;;;;10.80;8.50;;;;;;;;;;5087243;28;20207;-57
2022/03/29 01:41:27;;;;;;;12.60;8.33;;;;;;;;;;5075657;28;20730;-55
2022/03/29 01:43:54;;;;;;;13.87;9.10;;;;;;;;;;5073110;28;20183;-55
2022/03/29 01:46:20;;;;;;;12.10;8.50;;;;;;;;;;5070176;28;20199;-55
2022/03/29 01:48:46;;;;;;;10.50;9.13;;;;;;;;;;5071021;28;20718;-57
2022/03/29 01:51:13;;;;;;;12.40;8.60;;;;;;;;;;5072934;28;20313;-55
2022/03/29 01:53:40;;;;;;;9.60;8.27;;;;;;;;;;5090596;28;20175;-55
2022/03/29 01:56:07;;;;;;;11.53;7.83;;;;;;;;;;5071634;28;20670;-57
2022/03/29 01:58:33;;;;;;;13.70;8.57;;;;;;;;;;5069167;28;20234;-56
2022/03/29 02:00:59;;;;;;;11.73;8.57;;;;;;;;;;5074288;28;20203;-55
2022/03/29 02:03:26;;;;;;;11.60;9.20;;;;;;;;;;5093219;28;20175;-55
2022/03/29 02:05:53;;;;;;;9.93;8.33;;;;;;;;;;5070547;28;20183;-56
2022/03/29 02:08:20;;;;;;;12.10;8.87;;;;;;;;;;5089906;28;20172;-55
2022/03/29 02:10:46;;;;;;;10.50;8.53;;;;;;;;;;5073317;28;20542;-56
2022/03/29 02:13:12;;;;;;;13.00;8.93;;;;;;;;;;5071383;28;20530;-55
2022/03/29 02:15:42;;;;;;;11.93;9.03;;;;;;;;;;5062954;28;20230;-56
2022/03/29 02:18:08;;;;;;;9.33;8.03;;;;;;;;;;5087653;28;20187;-57
2022/03/29 02:20:34;;;;;;;10.37;8.23;;;;;;;;;;5090250;28;20557;-56
2022/03/29 02:23:04;;;;;;;11.53;8.93;;;;;;;;;;5092330;28;20180;-56
2022/03/29 02:25:30;;;;;;;12.20;8.40;;;;;;;;;;5071637;28;20240;-55
2022/03/29 02:27:56;;;;;;;10.00;8.13;;;;;;;;;;5090450;28;20187;-56
2022/03/29 02:30:23;;;;;;;10.50;8.50;;;;;;;;;;5090404;28;20530;-55
2022/03/29 02:32:52;;;;;;;9.23;8.20;;;;;;;;;;5069895;28;20492;-56
2022/03/29 02:35:18;;;;;;;10.23;9.23;;;;;;;;;;5068489;28;20190;-55
2022/03/29 02:37:45;;;;;;;11.43;8.93;;;;;;;;;;5090779;28;20215;-56
2022/03/29 02:40:13;;;;;;;15.10;8.70;;;;;;;;;;5070735;28;20197;-56
2022/03/29 02:42:44;;;;;;;11.63;9.20;;;;;;;;;;5088392;28;21484;-55
2022/03/29 02:45:15;;;;;;;10.70;8.53;;;;;;;;;;5089336;28;20206;-55
2022/03/29 02:47:43;;;;;;;11.30;9.53;;;;;;;;;;5088444;28;20179;-56
2022/03/29 02:50:10;;;;;;;10.30;8.50;;;;;;;;;;5079356;28;20662;-55
2022/03/29 02:52:49;;;;;;;10.27;9.17;;;;;;;;;;5071471;28;20248;-57
2022/03/29 02:55:18;;;;;;;12.23;9.30;;;;;;;;;;5072852;28;20194;-56
2022/03/29 02:57:44;;;;;;;11.03;9.10;;;;;;;;;;5071442;28;20287;-56
2022/03/29 03:00:15;;;;;;;11.87;10.17;;;;;;;;;;5067799;28;20539;-57
2022/03/29 03:02:42;;;;;;;12.50;9.20;;;;;;;;;;5086190;28;20617;-55
2022/03/29 03:05:10;;;;;;;11.53;9.90;;;;;;;;;;5063529;28;20275;-56
2022/03/29 03:07:36;;;;;;;13.20;10.03;;;;;;;;;;5066162;28;20192;-54
2022/03/29 03:10:03;;;;;;;10.93;9.73;;;;;;;;;;5071899;28;20180;-55
2022/03/29 03:12:34;;;;;;;11.37;9.57;;;;;;;;;;5088632;28;20404;-55
2022/03/29 03:15:01;;;;;;;12.10;9.93;;;;;;;;;;5070537;28;20306;-54
2022/03/29 03:17:27;;;;;;;13.17;10.83;;;;;;;;;;5067156;28;20215;-54
2022/03/29 03:19:53;;;;;;;13.50;11.10;;;;;;;;;;5068187;28;20302;-54
2022/03/29 03:22:19;;;;;;;12.23;10.70;;;;;;;;;;5073729;28;20180;-55
2022/03/29 03:24:45;;;;;;;12.83;10.53;;;;;;;;;;5088879;28;20849;-55
2022/03/29 03:27:12;;;;;;;11.87;10.10;;;;;;;;;;5086255;28;20667;-54
2022/03/29 03:29:38;;;;;;;13.03;11.63;;;;;;;;;;5066840;28;20188;-54
2022/03/29 03:32:04;;;;;;;12.10;10.70;;;;;;;;;;5071743;28;20639;-54
2022/03/29 03:34:30;;;;;;;12.33;10.90;;;;;;;;;;5079391;28;20184;-55
2022/03/29 03:36:57;;;;;;;13.83;11.63;;;;;;;;;;5088747;28;20229;-55
2022/03/29 03:39:23;;;;;;;16.27;10.90;;;;;;;;;;5087689;28;20680;-54
2022/03/29 03:41:49;;;;;;;12.47;11.17;;;;;;;;;;5090305;28;20230;-54
2022/03/29 03:44:15;;;;;;;14.53;11.23;;;;;;;;;;5088643;28;20215;-57
2022/03/29 03:46:41;;;;;;;13.53;11.10;;;;;;;;;;5089410;28;20180;-55
2022/03/29 03:49:08;;;;;;;13.13;11.73;;;;;;;;;;5086897;28;20937;-55
2022/03/29 03:51:34;;;;;;;15.97;12.10;;;;;;;;;;5088962;28;20386;-54
2022/03/29 03:54:01;;;;;;;13.97;11.93;;;;;;;;;;5069401;28;20192;-55
2022/03/29 03:56:27;;;;;;;15.93;12.47;;;;;;;;;;5071188;28;20192;-57
2022/03/29 03:58:54;;;;;;;14.67;12.07;;;;;;;;;;5065547;28;20205;-55
2022/03/29 04:01:20;;;;;;;14.20;12.73;;;;;;;;;;5088552;28;20179;-55
2022/03/29 04:03:46;;;;;;;13.67;12.13;;;;;;;;;;5083594;28;20543;-56
2022/03/29 04:06:12;;;;;;;14.27;12.53;;;;;;;;;;5085471;28;20263;-57
2022/03/29 04:08:38;;;;;;;14.47;12.97;;;;;;;;;;5082582;28;20221;-57
2022/03/29 04:11:06;;;;;;;13.77;11.40;;;;;;;;;;5078534;28;20183;-55
2022/03/29 04:13:34;;;;;;;14.30;11.93;;;;;;;;;;5067398;28;20184;-56
2022/03/29 04:16:01;;;;;;;13.63;11.87;;;;;;;;;;5060130;28;20211;-54
2022/03/29 04:18:27;;;;;;;15.93;11.90;;;;;;;;;;5084352;28;20188;-54
2022/03/29 04:20:53;;;;;;;13.37;11.90;;;;;;;;;;5086147;28;20681;-55
2022/03/29 04:23:20;;;;;;;14.60;13.10;;;;;;;;;;5082100;28;20176;-54
2022/03/29 04:25:46;;;;;;;16.23;12.30;;;;;;;;;;5063887;28;20191;-55
2022/03/29 04:28:12;;;;;;;14.90;12.53;;;;;;;;;;5086684;28;20179;-55
2022/03/29 04:30:38;;;;;;;14.33;12.73;;;;;;;;;;5075119;28;20194;-56
2022/03/29 04:33:06;;;;;;;14.97;12.63;;;;;;;;;;5068772;28;20179;-55
2022/03/29 04:35:32;;;;;;;14.07;12.00;;;;;;;;;;5067829;28;20267;-55
2022/03/29 04:37:58;;;;;;;14.80;12.80;;;;;;;;;;5078381;28;20549;-56
2022/03/29 04:40:25;;;;;;;15.47;12.40;;;;;;;;;;5081381;28;20195;-56
2022/03/29 04:42:52;;;;;;;13.73;12.27;;;;;;;;;;5064648;28;20219;-54
2022/03/29 04:45:19;;;;;;;14.90;13.10;;;;;;;;;;5064140;28;20197;-55
2022/03/29 04:47:45;;;;;;;14.80;13.20;;;;;;;;;;5063797;28;20186;-55
2022/03/29 04:50:13;;;;;;;18.00;13.33;;;;;;;;;;5063413;28;20264;-55
2022/03/29 04:52:44;;;;;;;16.23;14.53;;;;;;;;;;5079873;28;20184;-55
2022/03/29 04:55:10;;;;;;;14.97;13.20;;;;;;;;;;5085887;28;20182;-55
2022/03/29 04:57:37;;;;;;;16.70;13.83;;;;;;;;;;5087035;28;20191;-56
2022/03/29 05:00:04;;;;;;;15.70;13.80;;;;;;;;;;5084673;28;20658;-57
2022/03/29 05:02:31;;;;;;;16.70;14.03;;;;;;;;;;5087616;28;20176;-56
2022/03/29 05:04:57;;;;;;;15.73;13.47;;;;;;;;;;5069212;28;20179;-55
2022/03/29 05:07:23;;;;;;;15.03;13.00;;;;;;;;;;5087122;28;20598;-55
2022/03/29 05:09:50;;;;;;;17.73;14.37;;;;;;;;;;5087718;28;20698;-54
2022/03/29 05:12:16;;;;;;;16.87;14.60;;;;;;;;;;5090583;28;20223;-56
2022/03/29 05:14:43;;;;;;;15.03;13.10;;;;;;;;;;5086884;28;20211;-54
2022/03/29 05:17:09;;;;;;;17.37;14.43;;;;;;;;;;5091887;28;20183;-54
2022/03/29 05:19:35;;;;;;;16.50;14.13;;;;;;;;;;5090537;28;20704;-55
2022/03/29 05:22:01;;;;;;;17.10;14.60;;;;;;;;;;5091610;28;20167;-55
2022/03/29 05:24:27;;;;;;;16.70;13.63;;;;;;;;;;5083969;28;20221;-55
2022/03/29 05:26:53;;;;;;;17.83;15.17;;;;;;;;;;5092346;28;20175;-55
2022/03/29 05:29:20;;;;;;;17.50;15.40;;;;;;;;;;5073224;28;20329;-55
2022/03/29 05:31:50;;;;;;;18.03;15.00;;;;;;;;;;5090667;28;20737;-54
2022/03/29 05:34:17;;;;;;;18.27;15.50;;;;;;;;;;5090402;28;20187;-56
2022/03/29 05:36:45;;;;;;;17.20;14.67;;;;;;;;;;5073485;28;20180;-54
2022/03/29 05:39:14;;;;;;;16.73;14.73;;;;;;;;;;5073540;28;20200;-54
2022/03/29 05:41:41;;;;;;;18.53;14.67;;;;;;;;;;5079664;28;20212;-55
2022/03/29 05:44:07;;;;;;;16.97;14.23;;;;;;;;;;5071878;28;20168;-54
2022/03/29 05:49:22;;;;;;;16.43;14.73;;;;;;;;;;5090319;28;20282;-55
2022/03/29 05:51:49;;;;;;;18.83;15.93;;;;;;;;;;5091304;28;20172;-55
2022/03/29 05:54:17;;;;;;;16.83;14.77;;;;;;;;;;5086687;28;20207;-54
2022/03/29 05:56:43;;;;;;;16.47;14.70;;;;;;;;;;5072758;28;20694;-55
2022/03/29 05:59:10;;;;;;;17.63;15.73;;;;;;;;;;5090626;28;20685;-54
2022/03/29 06:01:36;;;;;;;19.60;15.20;;;;;;;;;;5090963;28;20203;-54
2022/03/29 06:04:06;;;;;;;19.67;15.47;;;;;;;;;;5076732;28;20642;-54
2022/03/29 06:06:34;;;;;;;18.70;15.60;;;;;;;;;;5073294;28;20176;-56
2022/03/29 06:09:01;;;;;;;18.20;15.60;;;;;;;;;;5076499;28;20210;-56
2022/03/29 06:11:27;;;;;;;17.77;15.63;;;;;;;;;;5056308;28;20217;-54
2022/03/29 06:13:53;;;;;;;17.23;15.30;;;;;;;;;;5081687;28;20222;-54
2022/03/29 06:16:20;;;;;;;19.47;16.40;;;;;;;;;;5090868;28;20278;-54
2022/03/29 06:18:47;;;;;;;19.07;16.37;;;;;;;;;;5075557;28;20201;-55
2022/03/29 06:21:13;;;;;;;18.07;16.10;;;;;;;;;;5075789;28;20551;-54
2022/03/29 06:23:40;;;;;;;18.03;16.07;;;;;;;;;;5079422;28;20179;-54
2022/03/29 06:26:06;;;;;;;19.07;16.03;;;;;;;;;;5090954;28;20172;-56
2022/03/29 06:28:32;;;;;;;22.30;16.33;;;;;;;;;;5081912;28;20171;-55
2022/03/29 06:31:01;;;;;;;18.43;16.53;;;;;;;;;;5072767;28;20260;-55
2022/03/29 06:33:27;;;;;;;19.80;17.63;;;;;;;;;;5071330;28;20180;-54
2022/03/29 06:35:54;;;;;;;24.20;16.70;;;;;;;;;;5072904;28;20271;-54
2022/03/29 06:38:21;;;;;;;19.57;17.33;;;;;;;;;;5089749;28;20223;-55
2022/03/29 06:40:52;;;;;;;19.37;16.63;;;;;;;;;;5072634;28;20199;-54
2022/03/29 06:43:19;;;;;;;20.87;17.20;;;;;;;;;;5072136;28;20281;-54
2022/03/29 06:45:46;;;;;;;19.60;17.50;;;;;;;;;;5072577;28;20600;-55
2022/03/29 06:48:13;;;;;;;27.40;18.63;;;;;;;;;;5069836;28;20217;-55
2022/03/29 06:50:39;;;;;;;23.40;19.50;;;;;;;;;;5080690;28;20191;-54
2022/03/29 06:53:06;;;;;;;21.07;17.27;;;;;;;;;;5071461;28;20184;-54
2022/03/29 06:55:33;;;;;;;18.57;16.53;;;;;;;;;;5090422;28;20192;-54
2022/03/29 06:57:59;;;;;;;20.33;17.40;;;;;;;;;;5074947;28;20195;-54
2022/03/29 07:00:25;;;;;;;21.20;18.30;;;;;;;;;;5093031;28;20199;-55
2022/03/29 07:02:51;;;;;;;20.47;17.87;;;;;;;;;;5086028;28;20311;-55
2022/03/29 07:05:19;;;;;;;21.90;18.63;;;;;;;;;;5090970;28;20519;-55
2022/03/29 07:07:46;;;;;;;22.70;18.40;;;;;;;;;;5089790;28;20334;-54
2022/03/29 07:13:01;;;;;;;22.90;18.03;;;;;;;;;;5080798;28;20195;-54
2022/03/29 07:15:28;;;;;;;24.87;19.50;;;;;;;;;;5089676;28;20298;-56
2022/03/29 07:17:55;;;;;;;21.67;19.20;;;;;;;;;;5053954;28;20191;-54
2022/03/29 07:20:21;;;;;;;22.40;19.03;;;;;;;;;;5093886;28;20730;-55
2022/03/29 07:22:48;;;;;;;24.30;21.37;;;;;;;;;;5085052;28;20551;-55
2022/03/29 07:25:17;;;;;;;23.90;19.63;;;;;;;;;;5075830;28;20173;-55
2022/03/29 07:27:43;;;;;;;25.33;21.00;;;;;;;;;;5056721;28;20546;-56
2022/03/29 07:30:10;;;;;;;26.13;20.27;;;;;;;;;;5071613;28;20219;-55
2022/03/29 07:32:50;;;;;;;24.13;18.97;;;;;;;;;;5070785;28;20555;-56
2022/03/29 07:35:17;;;;;;;27.50;21.70;;;;;;;;;;5071544;28;20712;-54
2022/03/29 07:37:43;;;;;;;26.03;21.87;;;;;;;;;;5088691;28;20543;-56
2022/03/29 07:40:11;;;;;;;26.93;20.73;;;;;;;;;;5090060;28;20593;-55
2022/03/29 07:42:38;;;;;;;26.40;21.30;;;;;;;;;;5072258;28;21164;-56
2022/03/29 07:45:06;;;;;;;28.77;21.03;;;;;;;;;;5070158;28;20175;-55
2022/03/29 07:47:35;;;;;;;27.27;21.77;;;;;;;;;;5087050;28;20644;-57
2022/03/29 07:50:06;;;;;;;29.67;23.33;;;;;;;;;;5055631;28;20182;-56
2022/03/29 07:52:32;;;;;;;31.67;22.53;;;;;;;;;;5073520;28;20177;-54
2022/03/29 07:54:59;;;;;;;35.80;24.37;;;;;;;;;;5063120;28;20217;-56
2022/03/29 07:57:25;;;;;;;36.00;25.53;;;;;;;;;;5073716;28;20536;-56
2022/03/29 07:59:52;;;;;;;33.60;23.90;;;;;;;;;;5066903;28;20286;-55
2022/03/29 08:02:18;;;;;;;31.80;24.90;;;;;;;;;;5070273;28;20202;-56
2022/03/29 08:04:45;;;;;;;34.80;25.57;;;;;;;;;;5076848;28;20271;-57
2022/03/29 08:07:11;;;;;;;33.27;25.50;;;;;;;;;;5087771;28;20621;-55
2022/03/29 08:09:37;;;;;;;37.13;27.03;;;;;;;;;;5079115;28;20549;-56
2022/03/29 08:12:04;;;;;;;33.67;26.80;;;;;;;;;;5088360;28;20676;-56
2022/03/29 08:14:30;;;;;;;38.10;25.90;;;;;;;;;;5088316;28;20727;-55
2022/03/29 08:16:56;;;;;;;39.60;27.10;;;;;;;;;;5070520;28;20630;-56
2022/03/29 08:19:26;;;;;;;40.67;28.10;;;;;;;;;;5087770;28;20239;-56
2022/03/29 08:21:52;;;;;;;38.33;28.67;;;;;;;;;;5103545;28;20171;-56
2022/03/29 08:24:23;;;;;;;35.20;27.70;;;;;;;;;;5070447;28;20184;-55
2022/03/29 08:26:51;;;;;;;37.23;27.13;;;;;;;;;;5089504;28;20733;-56
2022/03/29 08:29:18;;;;;;;38.40;27.60;;;;;;;;;;5088960;28;20191;-56
2022/03/29 08:31:47;;;;;;;40.97;27.23;;;;;;;;;;5088340;28;20731;-55
2022/03/29 08:34:13;;;;;;;41.80;28.53;;;;;;;;;;5087162;28;20188;-58
2022/03/29 08:36:40;;;;;;;39.97;28.17;;;;;;;;;;5088788;28;20186;-56
2022/03/29 08:39:07;;;;;;;39.00;28.70;;;;;;;;;;5087966;28;20187;-56
2022/03/29 08:41:36;;;;;;;37.80;27.80;;;;;;;;;;5070880;28;20690;-55
2022/03/29 08:44:03;;;;;;;40.33;28.40;;;;;;;;;;5087726;28;20179;-56
2022/03/29 08:46:38;;;;;;;37.60;26.50;;;;;;;;;;5069069;28;20175;-55
2022/03/29 08:49:05;;;;;;;33.80;26.10;;;;;;;;;;5063050;28;20183;-56
2022/03/29 08:51:31;;;;;;;37.70;27.33;;;;;;;;;;5087302;28;20738;-56
2022/03/29 08:53:57;;;;;;;42.90;29.40;;;;;;;;;;5074829;28;20179;-55
2022/03/29 08:56:23;;;;;;;41.87;29.23;;;;;;;;;;5068813;28;20172;-56
2022/03/29 08:58:49;;;;;;;42.60;29.30;;;;;;;;;;5078758;28;20187;-57
2022/03/29 09:01:19;;;;;;;39.43;28.80;;;;;;;;;;5087580;28;20203;-55
2022/03/29 09:03:46;;;;;;;40.83;30.20;;;;;;;;;;5087284;28;20183;-56
2022/03/29 09:06:12;;;;;;;40.20;29.10;;;;;;;;;;5070158;28;20179;-57
2022/03/29 09:08:48;;;;;;;36.10;27.20;;;;;;;;;;5087645;28;20440;-56
2022/03/29 09:11:16;;;;;;;40.43;28.70;;;;;;;;;;5054053;28;20179;-58
2022/03/29 09:13:42;;;;;;;41.67;29.60;;;;;;;;;;5067021;28;20176;-56
2022/03/29 09:16:26;;;;;;;38.30;28.10;;;;;;;;;;5069617;28;20709;-56
2022/03/29 09:18:55;;;;;;;39.37;28.23;;;;;;;;;;5068760;28;20180;-55
2022/03/29 09:21:24;;;;;;;41.33;29.03;;;;;;;;;;5087702;28;20552;-56
2022/03/29 09:24:07;;;;;;;47.43;31.17;;;;;;;;;;5071427;28;20180;-56
2022/03/29 09:26:33;;;;;;;46.47;30.07;;;;;;;;;;5088386;28;20172;-55
2022/03/29 09:29:00;;;;;;;48.23;30.47;;;;;;;;;;5087684;28;20187;-56
2022/03/29 09:31:29;;;;;;;43.17;29.53;;;;;;;;;;5086839;28;20180;-54
2022/03/29 09:34:15;;;;;;;45.13;30.40;;;;;;;;;;5086706;28;20183;-55
2022/03/29 09:36:43;;;;;;;46.13;30.87;;;;;;;;;;5086543;28;20184;-56
2022/03/29 09:39:10;;;;;;;42.33;28.87;;;;;;;;;;5078336;28;20684;-57
2022/03/29 09:41:40;;;;;;;43.70;30.80;;;;;;;;;;5090041;28;20540;-56
2022/03/29 09:44:08;;;;;;;46.70;30.57;;;;;;;;;;5091328;28;20168;-55
2022/03/29 09:46:53;;;;;;;46.47;29.83;;;;;;;;;;5088505;28;20647;-56
2022/03/29 09:49:22;;;;;;;47.70;31.07;;;;;;;;;;5086817;28;20176;-55
2022/03/29 09:51:49;;;;;;;49.60;32.27;;;;;;;;;;5086252;28;20218;-54
2022/03/29 09:54:15;;;;;;;54.07;33.53;;;;;;;;;;5087555;28;20180;-56
2022/03/29 09:56:50;;;;;;;46.30;31.43;;;;;;;;;;5070357;28;20200;-54
2022/03/29 09:59:17;;;;;;;51.20;31.70;;;;;;;;;;5072952;28;20176;-54
2022/03/29 10:01:48;;;;;;;47.90;31.83;;;;;;;;;;5072109;28;20260;-55
2022/03/29 10:04:16;;;;;;;49.93;33.07;;;;;;;;;;5076055;28;20183;-56
2022/03/29 10:06:43;;;;;;;44.80;30.13;;;;;;;;;;5073268;28;20262;-54
2022/03/29 10:09:27;;;;;;;51.43;32.33;;;;;;;;;;5078475;28;20184;-55
2022/03/29 10:11:57;;;;;;;43.60;30.13;;;;;;;;;;5092110;28;20187;-56
2022/03/29 10:14:25;;;;;;;50.70;31.40;;;;;;;;;;5089049;28;20703;-56
2022/03/29 10:16:52;;;;;;;47.40;31.07;;;;;;;;;;5087535;28;20164;-55
2022/03/29 10:19:19;;;;;;;44.40;30.50;;;;;;;;;;5076693;28;20698;-55
2022/03/29 10:21:45;;;;;;;51.37;31.07;;;;;;;;;;5091534;28;20194;-56
2022/03/29 10:24:15;;;;;;;45.87;31.00;;;;;;;;;;5075908;28;20172;-55
2022/03/29 10:26:43;;;;;;;43.40;30.53;;;;;;;;;;5072986;28;20543;-57
2022/03/29 10:29:10;;;;;;;48.03;30.60;;;;;;;;;;5073660;28;20656;-56
2022/03/29 10:31:41;;;;;;;45.40;30.13;;;;;;;;;;5090837;28;20187;-56
2022/03/29 10:34:16;;;;;;;44.17;29.63;;;;;;;;;;5083603;28;20631;-56
2022/03/29 10:37:01;;;;;;;42.83;29.93;;;;;;;;;;5074560;28;20583;-55
2022/03/29 10:39:46;;;;;;;47.83;31.87;;;;;;;;;;5085848;28;20687;-53
2022/03/29 10:42:24;;;;;;;48.07;32.13;;;;;;;;;;5090754;28;20222;-56
2022/03/29 10:45:02;;;;;;;44.73;29.93;;;;;;;;;;5072236;28;20665;-57
2022/03/29 10:47:29;;;;;;;46.13;30.80;;;;;;;;;;5090024;28;20447;-55
2022/03/29 10:49:55;;;;;;;46.83;30.80;;;;;;;;;;5086658;28;20193;-58
2022/03/29 10:52:21;;;;;;;47.97;33.63;;;;;;;;;;5089806;28;20168;-55
2022/03/29 10:54:48;;;;;;;50.67;33.80;;;;;;;;;;5089863;28;20179;-55
2022/03/29 10:57:28;;;;;;;50.70;33.57;;;;;;;;;;5072382;28;20204;-58
2022/03/29 11:00:10;;;;;;;48.73;33.20;;;;;;;;;;5070967;28;20196;-57
2022/03/29 11:02:37;;;;;;;51.17;34.60;;;;;;;;;;5071606;28;20627;-57
2022/03/29 11:05:10;;;;;;;47.27;33.03;;;;;;;;;;5090065;28;20630;-53
2022/03/29 11:07:59;;;;;;;49.87;34.37;;;;;;;;;;5072245;28;20655;-54
2022/03/29 11:10:42;;;;;;;50.37;33.00;;;;;;;;;;5082117;28;20665;-57
2022/03/29 11:13:32;;;;;;;48.50;31.67;;;;;;;;;;5071326;28;20176;-54
2022/03/29 11:16:02;;;;;;;45.43;32.63;;;;;;;;;;5073997;28;20215;-55
2022/03/29 11:18:32;;;;;;;55.73;37.37;;;;;;;;;;5078810;28;20222;-55
2022/03/29 11:21:05;;;;;;;60.20;39.77;;;;;;;;;;5068043;28;20671;-55
2022/03/29 11:23:32;;;;;;;59.00;39.30;;;;;;;;;;5069980;28;20164;-55
2022/03/29 11:26:04;;;;;;;61.07;41.27;;;;;;;;;;5060461;28;20180;-55
2022/03/29 11:28:32;;;;;;;60.00;41.57;;;;;;;;;;5074765;28;20448;-55
2022/03/29 11:30:58;;;;;;;61.33;40.93;;;;;;;;;;5052875;28;20222;-54
2022/03/29 11:33:31;;;;;;;65.00;43.63;;;;;;;;;;5070308;28;20211;-55
2022/03/29 11:35:58;;;;;;;69.57;44.57;;;;;;;;;;5048518;28;20181;-55
2022/03/29 11:38:25;;;;;;;75.70;49.67;;;;;;;;;;5050798;28;20194;-55
2022/03/29 11:40:51;;;;;;;70.73;45.47;;;;;;;;;;5064961;28;20208;-54
2022/03/29 11:43:22;;;;;;;71.63;51.03;;;;;;;;;;5065437;28;20179;-56
2022/03/29 11:45:49;;;;;;;76.40;48.83;;;;;;;;;;5065421;28;20188;-56
2022/03/29 11:48:18;;;;;;;80.60;52.40;;;;;;;;;;5048390;28;20752;-57
2022/03/29 11:50:44;;;;;;;87.47;53.37;;;;;;;;;;5068186;28;20184;-55
2022/03/29 11:53:25;;;;;;;71.90;47.70;;;;;;;;;;5065510;28;20180;-56
2022/03/29 11:56:02;;;;;;;75.33;49.30;;;;;;;;;;5067551;28;20269;-57
2022/03/29 11:58:31;;;;;;;75.75;53.60;;;;;;;;;;5059150;28;20418;-55
2022/03/29 12:01:08;;;;;;;69.10;47.17;;;;;;;;;;5066749;28;20197;-56
2022/03/29 12:03:35;;;;;;;69.17;45.80;;;;;;;;;;5047050;28;20269;-55
2022/03/29 12:06:05;;;;;;;68.50;48.50;;;;;;;;;;5045477;28;20180;-57
2022/03/29 12:08:43;;;;;;;71.20;48.37;;;;;;;;;;5052640;28;20181;-56
2022/03/29 12:11:09;;;;;;;67.03;44.17;;;;;;;;;;5053515;28;20173;-55
2022/03/29 12:13:36;;;;;;;68.20;45.07;;;;;;;;;;5045858;28;20182;-56
2022/03/29 12:16:22;;;;;;;65.73;43.47;;;;;;;;;;5080378;28;20207;-56
2022/03/29 12:18:49;;;;;;;66.03;45.20;;;;;;;;;;5076526;28;20225;-55
2022/03/29 12:21:17;;;;;;;67.97;43.57;;;;;;;;;;5084830;28;20184;-55
2022/03/29 12:23:47;;;;;;;63.80;43.03;;;;;;;;;;5051609;28;20927;-56
2022/03/29 12:26:13;;;;;;;58.57;40.83;;;;;;;;;;5087023;28;20190;-56
2022/03/29 12:28:41;;;;;;;58.73;41.13;;;;;;;;;;5086323;28;20168;-56
2022/03/29 12:31:16;;;;;;;59.77;40.83;;;;;;;;;;5087136;28;20236;-56
2022/03/29 12:33:45;;;;;;;61.23;42.13;;;;;;;;;;5067304;28;20178;-57
2022/03/29 12:36:12;;;;;;;55.80;40.00;;;;;;;;;;5052855;28;20200;-59
2022/03/29 12:38:42;;;;;;;56.57;39.27;;;;;;;;;;5080687;28;20190;-59
2022/03/29 12:41:11;;;;;;;50.10;36.93;;;;;;;;;;5075980;28;20290;-60
2022/03/29 12:43:37;;;;;;;53.73;38.27;;;;;;;;;;5079996;28;20620;-61
2022/03/29 12:46:09;;;;;;;54.17;40.37;;;;;;;;;;5064726;28;20183;-58
2022/03/29 12:48:41;;;;;;;55.23;39.33;;;;;;;;;;5067618;28;20215;-59
2022/03/29 12:51:08;;;;;;;53.40;38.73;;;;;;;;;;5063860;28;20176;-60
2022/03/29 12:53:35;;;;;;;53.67;37.90;;;;;;;;;;5086490;28;20181;-60
2022/03/29 12:56:09;;;;;;;54.70;38.23;;;;;;;;;;5081220;28;20334;-60
2022/03/29 12:58:36;;;;;;;49.73;36.30;;;;;;;;;;5080760;28;20206;-60
2022/03/29 13:01:07;;;;;;;49.90;36.03;;;;;;;;;;5066309;28;20207;-60
2022/03/29 13:03:37;;;;;;;47.00;34.47;;;;;;;;;;5085296;28;20611;-59
2022/03/29 13:06:04;;;;;;;46.03;34.70;;;;;;;;;;5062753;28;20184;-58
2022/03/29 13:08:31;;;;;;;42.87;32.37;;;;;;;;;;5078359;28;20270;-58
2022/03/29 13:10:57;;;;;;;39.57;30.03;;;;;;;;;;5073539;28;20210;-59
2022/03/29 13:13:28;;;;;;;37.23;29.67;;;;;;;;;;5059375;28;20492;-58
2022/03/29 13:16:10;;;;;;;33.90;27.40;;;;;;;;;;5084691;28;20231;-58
2022/03/29 13:18:38;;;;;;;37.13;28.30;;;;;;;;;;5067544;28;20618;-58
2022/03/29 13:21:19;;;;;;;36.57;27.43;;;;;;;;;;5068982;28;20667;-58
2022/03/29 13:23:56;;;;;;;39.73;29.67;;;;;;;;;;5066697;28;20186;-58
2022/03/29 13:26:24;;;;;;;34.07;27.53;;;;;;;;;;5066153;28;20176;-58
2022/03/29 13:28:53;;;;;;;35.33;28.87;;;;;;;;;;5083939;28;20634;-57
2022/03/29 13:31:20;;;;;;;35.03;25.23;;;;;;;;;;5086130;28;20532;-57
2022/03/29 13:33:47;;;;;;;35.40;26.97;;;;;;;;;;5078633;28;20188;-59
2022/03/29 13:36:15;;;;;;;34.10;25.50;;;;;;;;;;5091118;28;20180;-59
2022/03/29 13:38:42;;;;;;;32.83;24.23;;;;;;;;;;5080837;28;20196;-58
2022/03/29 13:41:09;;;;;;;34.53;25.47;;;;;;;;;;5077157;28;20552;-58
2022/03/29 13:43:36;;;;;;;30.53;23.10;;;;;;;;;;5085065;28;20175;-57
2022/03/29 13:46:04;;;;;;;30.47;23.60;;;;;;;;;;5071412;28;20199;-59
2022/03/29 13:48:30;;;;;;;35.87;23.83;;;;;;;;;;5083843;28;20545;-57
2022/03/29 13:50:57;;;;;;;29.87;23.23;;;;;;;;;;5073413;28;20231;-57
2022/03/29 13:53:23;;;;;;;28.27;22.97;;;;;;;;;;5090434;28;20283;-57
2022/03/29 13:55:50;;;;;;;29.40;23.60;;;;;;;;;;5074500;28;20243;-59
2022/03/29 13:58:16;;;;;;;27.47;22.17;;;;;;;;;;5060385;28;20209;-58
2022/03/29 14:00:42;;;;;;;26.83;20.70;;;;;;;;;;5081698;28;20220;-56
2022/03/29 14:03:09;;;;;;;25.07;20.33;;;;;;;;;;5086435;28;20176;-58
2022/03/29 14:05:42;;;;;;;22.67;19.17;;;;;;;;;;5070285;28;20192;-55
2022/03/29 14:08:09;;;;;;;27.27;19.57;;;;;;;;;;5087339;28;20177;-56
2022/03/29 14:10:36;;;;;;;23.60;18.57;;;;;;;;;;5052017;28;20188;-56
2022/03/29 14:13:04;;;;;;;24.33;18.93;;;;;;;;;;5066015;28;20191;-57
2022/03/29 14:15:30;;;;;;;20.40;17.63;;;;;;;;;;5056571;28;20588;-57
2022/03/29 14:18:00;;;;;;;22.83;18.33;;;;;;;;;;5067918;28;20489;-57
2022/03/29 14:20:26;;;;;;;18.77;16.37;;;;;;;;;;5066892;28;20229;-56
2022/03/29 14:22:53;;;;;;;20.57;16.13;;;;;;;;;;5045838;28;20275;-57
2022/03/29 14:25:21;;;;;;;20.80;15.80;;;;;;;;;;5073039;28;20210;-56
2022/03/29 14:27:47;;;;;;;17.30;13.87;;;;;;;;;;5045821;28;20268;-51
2022/03/29 14:30:16;;;;;;;15.87;13.50;;;;;;;;;;5044602;28;20186;-55
2022/03/29 14:32:42;;;;;;;20.17;14.67;;;;;;;;;;5062266;28;20205;-54
2022/03/29 14:35:08;;;;;;;15.87;13.87;;;;;;;;;;5066778;28;20181;-54